Huvudsida
METAR-TAF:

METAR-TAF

Flygplatser :

Salalah, Oman

latitud: 17-02N, longitud: 054-05E, höjd: 20 m

Aktuellt väderrapport

Denna rapport gjordes för 38 minuter sedan, klockan 22:50 UTC
Vind 1 kt varierande vindriktning
Temperatur 25°C
Fuktighet 69%
Tryck 1014 hPa
Sikt 10 km eller mer
Få moln på en höjd av 2500 ft

METAR: OOSA 152250Z VRB01KT 9999 FEW025 25/19 Q1014 NOSIG

Tid: 03:28 (23:28 UTC)

Väderprognos

Denna rapport gjordes för 5 timmar och 48 minuter sedan, klockan 17:40 UTC
Prognos gäller från 15 kl. 18 UTC till 17 kl. 00 UTC
Vind 3 kt varierande vindriktning
Sikt 10 km eller mer
Få moln på en höjd av 2500 ft
Blir
från 16 kl. 04 UTC till 16 kl. 06 UTC
Vind 7 kt från syd/sydost
Blir
från 16 kl. 16 UTC till 16 kl. 18 UTC
Vind 3 kt varierande vindriktning

TAF: OOSA 151740Z 1518/1700 VRB03KT 9999 FEW025 BECMG 1604/1606 15007KT BECMG 1616/1618 VRB03KT

Aktuella väderrapporter och prognoser från 4000 flygplatser (METAR- och TAF-rapporter).

De tillgängliga stationerna syns som gula och röda prickar på kartan.

För musen över prickarna för att se namnen på stationerna.

Klicka sedan för att få väderrapporter och prognoser.

För att ändra kartan: Klicka på de gröna knapparna med ett svart kors på för att zooma in; den gröna knappen med ett streck på för att zooma ut; eller på de gröna pilarna för angränsande kartor.


METAR-TAF: